Time;durP1;ratioP1;P1;durP2;ratioP2;P2;SDS_P1;SDS_P2;PMS_P1;PMS_P2;Temp;Humidity;BMP_temperature;BMP_pressure;BME280_temperature;BME280_humidity;BME280_pressure;Samples;Min_cycle;Max_cycle;Signal;HPM_P1;HPM_P2
2022/05/29 00:02:10;;;;;;;9.30;2.72;;;;;;;8.43;80.20;101660.94;6505756;23;20137;-82
2022/05/29 00:04:41;;;;;;;6.53;2.80;;;;;;;8.22;80.30;101659.81;6506810;22;20008;-82
2022/05/29 00:07:16;;;;;;;7.73;2.17;;;;;;;8.15;80.30;101660.63;6506545;22;20004;-80
2022/05/29 00:09:49;;;;;;;11.23;3.05;;;;;;;8.25;80.59;101661.59;6503264;22;20014;-83
2022/05/29 00:12:22;;;;;;;10.63;2.80;;;;;;;8.08;81.02;101666.59;6498855;22;20118;-83
2022/05/29 00:14:54;;;;;;;13.63;3.10;;;;;;;8.08;81.17;101657.94;6498942;22;20018;-83
2022/05/29 00:17:25;;;;;;;8.30;3.10;;;;;;;8.03;81.46;101657.88;6496701;23;20008;-82
2022/05/29 00:19:57;;;;;;;9.30;2.53;;;;;;;8.01;81.43;101657.00;6498414;22;20011;-83
2022/05/29 00:22:30;;;;;;;12.50;2.47;;;;;;;8.11;82.13;101651.03;6498357;22;20425;-84
2022/05/29 00:25:08;;;;;;;9.75;2.55;;;;;;;7.98;82.24;101651.75;6498825;22;20074;-83
2022/05/29 00:27:40;;;;;;;9.02;2.65;;;;;;;8.05;81.73;101645.81;6498303;22;20031;-83
2022/05/29 00:30:13;;;;;;;7.70;2.60;;;;;;;7.91;82.12;101648.22;6497930;22;20007;-84
2022/05/29 00:32:44;;;;;;;10.88;2.85;;;;;;;7.78;82.41;101644.59;6497939;22;20007;-82
2022/05/29 00:35:16;;;;;;;11.13;3.80;;;;;;;7.82;82.76;101641.22;6498110;22;20437;-83
2022/05/29 00:37:48;;;;;;;14.47;3.03;;;;;;;7.73;82.81;101640.19;6497371;22;20008;-83
2022/05/29 00:40:45;;;;;;;7.50;2.90;;;;;;;7.75;83.01;101638.50;6497498;22;20011;-83
2022/05/29 00:43:17;;;;;;;8.90;2.90;;;;;;;7.72;83.40;101631.56;6498253;22;20330;-82
2022/05/29 00:46:00;;;;;;;11.80;2.80;;;;;;;7.66;83.78;101632.34;6497839;22;20011;-83
2022/05/29 00:48:31;;;;;;;9.73;2.97;;;;;;;7.60;84.13;101632.28;6496978;22;20018;-81
2022/05/29 00:51:10;;;;;;;9.93;2.40;;;;;;;7.64;84.55;101625.41;6497265;22;20498;-81
2022/05/29 00:53:41;;;;;;;9.13;3.90;;;;;;;7.56;84.57;101621.84;6497924;22;20004;-82
2022/05/29 00:56:13;;;;;;;10.73;3.40;;;;;;;7.53;84.99;101617.47;6497573;22;20015;-81
2022/05/29 00:58:44;;;;;;;10.97;3.83;;;;;;;7.66;84.68;101621.97;6521673;22;20008;-82
2022/05/29 01:01:16;;;;;;;9.60;2.50;;;;;;;7.50;84.99;101612.22;6497157;23;20085;-81
2022/05/29 01:03:47;;;;;;;16.00;3.20;;;;;;;7.54;85.59;101615.75;6500315;22;20022;-80
2022/05/29 01:06:18;;;;;;;13.27;3.00;;;;;;;7.62;85.73;101615.00;6498046;23;20015;-80
2022/05/29 01:08:50;;;;;;;13.40;2.67;;;;;;;7.61;85.35;101610.66;6497771;22;20008;-81
2022/05/29 01:11:34;;;;;;;10.38;3.47;;;;;;;7.67;85.46;101615.91;6497652;22;20066;-81
2022/05/29 01:14:45;;;;;;;11.52;3.00;;;;;;;7.77;85.44;101605.66;6498441;22;20078;-81
2022/05/29 01:17:32;;;;;;;9.10;2.55;;;;;;;7.85;85.36;101610.06;6497207;22;20038;-81
2022/05/29 01:20:08;;;;;;;13.90;3.58;;;;;;;7.89;85.45;101608.41;6497217;22;20004;-79
2022/05/29 01:23:07;;;;;;;8.68;3.10;;;;;;;7.96;85.45;101601.56;6497902;23;20004;-80
2022/05/29 01:26:29;;;;;;;12.73;3.47;;;;;;;8.02;85.30;101601.63;6497148;23;20020;-83
2022/05/29 01:29:03;;;;;;;11.95;3.13;;;;;;;7.93;85.45;101601.53;6462694;23;20012;-79
2022/05/29 01:31:59;;;;;;;11.13;2.92;;;;;;;7.89;85.46;101595.44;6437117;23;20047;-82
2022/05/29 01:34:40;;;;;;;14.65;4.10;;;;;;;7.83;85.61;101596.22;6461986;23;20591;-81
2022/05/29 01:37:21;;;;;;;12.23;3.40;;;;;;;7.86;86.14;101590.19;6462343;23;20008;-79
2022/05/29 01:40:16;;;;;;;14.88;4.22;;;;;;;7.80;86.29;101590.13;6461642;23;20020;-82
2022/05/29 01:43:00;;;;;;;9.98;3.55;;;;;;;7.76;86.60;101585.75;6462199;23;20012;-80
2022/05/29 01:45:53;;;;;;;11.30;3.63;;;;;;;7.72;86.75;101589.16;6462135;23;20820;-83
2022/05/29 01:48:30;;;;;;;;;;;;;;;7.73;85.56;101589.19;6462209;23;20012;-83
2022/05/29 01:51:24;;;;;;;10.82;3.33;;;;;;;7.72;86.71;101584.84;6462044;23;19915;-80
2022/05/29 01:54:06;;;;;;;12.10;3.50;;;;;;;7.71;87.01;101584.81;6464786;23;20015;-84
2022/05/29 01:56:42;;;;;;;12.15;3.95;;;;;;;7.64;87.15;101578.69;6461628;23;20119;-82
2022/05/29 01:59:31;;;;;;;11.43;3.22;;;;;;;7.71;87.40;101575.31;6462262;23;20315;-82
2022/05/29 02:02:07;;;;;;;11.10;3.33;;;;;;;7.61;87.22;101570.88;6461777;23;20094;-80
2022/05/29 02:04:47;;;;;;;14.18;3.88;;;;;;;7.58;87.79;101568.22;6479906;23;20008;-83
2022/05/29 02:10:23;;;;;;;15.40;4.28;;;;;;;7.48;88.18;101568.09;6496580;23;20012;-82
2022/05/29 02:13:05;;;;;;;14.70;3.83;;;;;;;7.45;88.86;101568.09;6497126;22;20378;-80
2022/05/29 02:15:45;;;;;;;11.50;3.80;;;;;;;7.39;88.62;101569.72;6496816;22;20611;-83
2022/05/29 02:18:23;;;;;;;12.88;3.53;;;;;;;7.39;88.94;101559.34;6497148;22;20144;-82
2022/05/29 02:21:01;;;;;;;10.05;3.53;;;;;;;7.62;89.09;101567.44;6500170;22;20011;-81
2022/05/29 02:23:37;;;;;;;14.73;3.80;;;;;;;7.52;88.83;101563.84;6496804;22;20035;-81
2022/05/29 02:26:14;;;;;;;10.55;3.85;;;;;;;7.62;88.52;101554.44;6495081;23;20053;-80
2022/05/29 02:28:51;;;;;;;12.73;3.95;;;;;;;7.63;88.38;101556.16;6496831;22;20015;-82
2022/05/29 02:31:41;;;;;;;13.20;3.70;;;;;;;7.63;88.25;101548.38;6497338;22;20014;-82
2022/05/29 02:34:28;;;;;;;10.45;3.72;;;;;;;7.74;87.93;101551.13;6496604;22;20004;-82
2022/05/29 02:37:41;;;;;;;12.30;4.80;;;;;;;7.67;87.68;101551.03;6495229;23;20461;-82
2022/05/29 02:40:23;;;;;;;12.55;3.70;;;;;;;7.59;87.78;101551.81;6497045;23;20011;-81
2022/05/29 02:43:20;;;;;;;11.77;4.25;;;;;;;7.54;88.20;101556.09;6496791;22;20011;-82
2022/05/29 02:45:58;;;;;;;16.48;4.40;;;;;;;7.42;88.41;101549.00;6498888;23;20008;-79
2022/05/29 02:48:47;;;;;;;11.93;3.90;;;;;;;7.39;88.83;101551.56;6499719;22;20099;-82
2022/05/29 02:51:34;;;;;;;10.82;4.70;;;;;;;7.36;88.98;101543.72;6501077;22;20020;-82
2022/05/29 02:54:10;;;;;;;9.00;3.25;;;;;;;7.36;89.28;101543.72;6500278;23;20063;-82
2022/05/29 02:56:41;;;;;;;11.25;4.43;;;;;;;7.36;89.38;101535.94;6498102;22;20076;-81
2022/05/29 02:59:13;;;;;;;8.43;3.53;;;;;;;7.34;89.19;101535.97;6521784;22;19999;-82
2022/05/29 03:01:53;;;;;;;14.65;4.45;;;;;;;7.37;89.24;101541.16;6522959;22;20000;-82
2022/05/29 03:04:49;;;;;;;12.45;5.05;;;;;;;7.43;88.86;101538.66;6501071;22;20004;-83
2022/05/29 03:08:08;;;;;;;13.50;3.53;;;;;;;7.47;88.57;101535.25;6503280;23;20008;-80
2022/05/29 03:10:51;;;;;;;14.90;3.92;;;;;;;7.47;88.62;101536.97;6468071;23;20013;-83
2022/05/29 03:13:56;;;;;;;14.05;3.92;;;;;;;7.49;88.56;101530.09;6463695;23;20000;-82
2022/05/29 03:16:42;;;;;;;13.13;4.07;;;;;;;7.52;88.55;101529.22;6438783;23;20005;-82
2022/05/29 03:19:22;;;;;;;15.68;3.63;;;;;;;7.54;88.35;101528.41;6463792;23;20096;-83
2022/05/29 03:22:08;;;;;;;13.48;3.70;;;;;;;7.59;88.41;101533.66;6464162;23;20342;-82
2022/05/29 03:25:00;;;;;;;10.55;3.78;;;;;;;7.62;88.06;101531.09;6463482;23;20461;-80
2022/05/29 03:27:39;;;;;;;11.25;4.75;;;;;;;7.62;88.20;101528.50;6463231;23;20008;-80
2022/05/29 03:30:25;;;;;;;8.90;3.30;;;;;;;7.74;88.12;101526.03;6463329;23;20012;-81
2022/05/29 03:32:59;;;;;;;12.82;5.47;;;;;;;7.67;87.61;101522.50;6463831;23;20088;-80
2022/05/29 03:35:33;;;;;;;11.30;4.15;;;;;;;7.67;87.54;101524.22;6463600;23;20123;-82
2022/05/29 03:38:05;;;;;;;7.82;3.65;;;;;;;7.71;87.45;101525.13;6463932;23;20008;-81
2022/05/29 03:40:37;;;;;;;13.07;3.33;;;;;;;7.76;87.47;101516.56;6463193;23;20019;-81
2022/05/29 03:43:08;;;;;;;8.05;3.35;;;;;;;7.75;87.40;101512.22;6462928;23;20104;-81
2022/05/29 03:45:40;;;;;;;6.27;2.93;;;;;;;7.76;87.32;101508.75;6463257;23;20008;-80
2022/05/29 03:48:11;;;;;;;13.60;3.77;;;;;;;7.82;87.01;101507.94;6496905;23;20406;-82
2022/05/29 03:50:42;;;;;;;14.73;3.53;;;;;;;7.81;87.10;101504.47;6497618;22;20019;-83
2022/05/29 03:53:14;;;;;;;10.13;3.73;;;;;;;7.84;87.09;101509.72;6498172;23;20012;-81
2022/05/29 03:55:45;;;;;;;10.03;3.00;;;;;;;7.81;86.92;101504.47;6498702;23;20000;-81
2022/05/29 03:58:16;;;;;;;6.70;3.23;;;;;;;7.85;87.09;101501.06;6497100;23;20008;-83
2022/05/29 04:00:48;;;;;;;10.07;3.40;;;;;;;7.85;87.10;101500.19;6498131;23;20014;-80
2022/05/29 04:03:19;;;;;;;8.90;3.20;;;;;;;7.87;87.20;101490.69;6499231;23;20050;-82
2022/05/29 04:05:51;;;;;;;13.43;3.50;;;;;;;7.88;87.07;101497.63;6498812;23;20464;-82
2022/05/29 04:14:03;;;;;;;9.75;3.63;;;;;;;7.96;87.16;101488.19;6499603;23;20453;-82
2022/05/29 04:16:34;;;;;;;13.03;4.60;;;;;;;7.97;86.79;101500.31;6498059;23;20032;-82
2022/05/29 04:19:05;;;;;;;10.73;4.37;;;;;;;8.01;86.98;101489.09;6498393;23;20015;-80
2022/05/29 04:21:38;;;;;;;16.37;4.07;;;;;;;8.04;86.78;101493.44;6497764;23;20012;-80
2022/05/29 04:24:10;;;;;;;8.77;3.30;;;;;;;8.04;86.78;101490.84;6498960;23;20004;-81
2022/05/29 04:26:42;;;;;;;10.70;3.30;;;;;;;8.10;86.72;101490.03;6510180;23;20015;-81
2022/05/29 04:29:15;;;;;;;7.32;3.33;;;;;;;8.20;87.35;101487.53;6512614;23;20027;-79
2022/05/29 04:34:37;;;;;;;8.75;3.53;;;;;;;8.26;87.31;101488.44;6511744;23;19915;-81
2022/05/29 04:37:08;;;;;;;12.83;3.40;;;;;;;8.26;87.72;101491.03;6513469;23;20027;-81
2022/05/29 04:39:39;;;;;;;11.90;5.17;;;;;;;8.22;87.60;101498.78;6513725;23;20262;-81
2022/05/29 04:42:11;;;;;;;7.33;3.93;;;;;;;8.27;87.98;101498.84;6509708;23;20008;-78
2022/05/29 04:44:42;;;;;;;14.93;4.30;;;;;;;8.25;89.39;101494.50;6497519;23;20007;-81
2022/05/29 04:47:14;;;;;;;16.37;5.57;;;;;;;8.22;90.31;101497.94;6498326;23;20449;-81
2022/05/29 04:49:45;;;;;;;13.00;4.37;;;;;;;8.08;90.94;101499.53;6497232;23;20096;-81
2022/05/29 04:52:16;;;;;;;10.07;4.60;;;;;;;8.05;91.43;101500.41;6497620;23;20004;-80
2022/05/29 04:54:48;;;;;;;10.80;4.10;;;;;;;8.00;92.85;101504.66;6498089;23;20012;-82
2022/05/29 04:57:19;;;;;;;15.83;5.07;;;;;;;8.03;93.96;101507.28;6498025;23;20043;-81
2022/05/29 04:59:51;;;;;;;16.13;4.93;;;;;;;8.12;94.73;101494.38;6496880;23;20051;-82
2022/05/29 05:02:22;;;;;;;10.33;3.80;;;;;;;8.10;95.30;101498.69;6497385;23;20011;-82
2022/05/29 05:04:53;;;;;;;13.00;4.63;;;;;;;8.14;95.31;101487.47;6497816;23;20000;-83
2022/05/29 05:07:25;;;;;;;11.57;4.83;;;;;;;8.13;95.26;101490.06;6497704;23;20018;-80
2022/05/29 05:09:56;;;;;;;9.43;4.17;;;;;;;8.36;95.92;101483.31;6497363;23;20034;-83
2022/05/29 05:12:29;;;;;;;8.87;4.60;;;;;;;8.38;95.88;101484.19;6496967;23;20008;-82
2022/05/29 05:15:00;;;;;;;10.07;4.43;;;;;;;8.37;95.56;101479.88;6496886;23;20008;-82
2022/05/29 05:17:32;;;;;;;12.93;4.37;;;;;;;8.49;96.11;101484.31;6496740;23;20011;-82
2022/05/29 05:20:04;;;;;;;17.80;5.20;;;;;;;8.59;96.43;101480.06;6496606;23;20451;-81
2022/05/29 05:22:36;;;;;;;11.70;5.05;;;;;;;8.58;96.59;101486.09;6496562;23;20015;-82
2022/05/29 05:25:11;;;;;;;12.40;4.47;;;;;;;8.51;95.56;101486.94;6496753;23;20004;-80
2022/05/29 05:27:45;;;;;;;13.52;4.72;;;;;;;8.61;95.80;101483.53;6494550;23;20030;-80
2022/05/29 05:30:17;;;;;;;11.20;3.90;;;;;;;8.60;94.97;101475.72;6496612;23;20008;-81
2022/05/29 05:32:49;;;;;;;11.57;4.60;;;;;;;8.73;94.82;101478.41;6496435;23;20010;-81
2022/05/29 05:35:20;;;;;;;14.33;4.03;;;;;;;8.75;94.43;101471.47;6497032;23;20421;-80
2022/05/29 05:37:51;;;;;;;11.80;4.20;;;;;;;8.86;94.51;101481.94;6496807;23;20035;-82
2022/05/29 05:40:26;;;;;;;12.83;4.33;;;;;;;8.84;94.24;101478.47;6497576;23;20008;-84
2022/05/29 05:42:58;;;;;;;9.75;3.92;;;;;;;8.94;94.89;101476.78;6497124;23;20008;-83
2022/05/29 05:45:29;;;;;;;8.57;3.80;;;;;;;8.93;94.95;101485.44;6497113;23;20004;-80
2022/05/29 05:48:00;;;;;;;16.27;4.63;;;;;;;8.76;94.45;101481.03;6495683;23;20018;-83
2022/05/29 05:50:31;;;;;;;10.00;3.97;;;;;;;8.83;95.02;101481.06;6496099;23;20437;-82
2022/05/29 05:53:03;;;;;;;10.83;5.07;;;;;;;8.85;95.07;101484.53;6496604;23;20004;-82
2022/05/29 05:55:36;;;;;;;14.60;5.33;;;;;;;8.81;94.49;101478.47;6496600;23;20058;-82
2022/05/29 05:58:07;;;;;;;10.65;4.53;;;;;;;8.86;93.63;101478.50;6495901;23;20653;-80
2022/05/29 06:00:39;;;;;;;10.37;3.97;;;;;;;8.98;94.09;101472.47;6496907;23;20075;-81
2022/05/29 06:03:10;;;;;;;8.93;4.27;;;;;;;8.97;93.32;101468.13;6469365;23;20015;-80
2022/05/29 06:05:42;;;;;;;10.20;4.67;;;;;;;9.05;93.60;101472.50;6496782;23;20047;-83
2022/05/29 06:08:14;;;;;;;9.70;4.70;;;;;;;9.09;93.25;101470.78;6494910;23;20008;-83
2022/05/29 06:10:45;;;;;;;10.73;4.37;;;;;;;9.31;92.67;101476.94;6496333;23;20004;-81
2022/05/29 06:13:17;;;;;;;13.73;4.70;;;;;;;9.32;92.11;101478.66;6496494;23;20008;-83
2022/05/29 06:15:48;;;;;;;15.37;4.67;;;;;;;9.28;92.22;101472.59;6496886;23;20823;-80
2022/05/29 06:18:20;;;;;;;10.97;4.73;;;;;;;9.29;91.33;101471.75;6495644;23;20008;-83
2022/05/29 06:21:00;;;;;;;11.30;4.23;;;;;;;9.53;92.18;101479.59;6496196;23;20019;-80
2022/05/29 06:23:33;;;;;;;9.73;4.28;;;;;;;9.55;90.69;101475.31;6496104;23;20118;-85
2022/05/29 06:26:07;;;;;;;13.52;4.63;;;;;;;9.65;90.83;101470.09;6495948;23;20034;-83
2022/05/29 06:28:40;;;;;;;11.55;4.32;;;;;;;9.85;91.83;101470.16;6496118;23;20024;-81
2022/05/29 06:31:12;;;;;;;9.60;4.30;;;;;;;9.80;90.45;101471.84;6468843;23;20434;-82
2022/05/29 06:33:43;;;;;;;12.57;4.27;;;;;;;9.95;90.38;101463.22;6495831;23;20015;-84
2022/05/29 06:36:23;;;;;;;11.57;3.70;;;;;;;10.00;89.09;101473.63;6495977;23;20020;-84
2022/05/29 06:38:56;;;;;;;12.15;4.10;;;;;;;10.32;90.78;101475.34;6497981;23;20008;-83
2022/05/29 06:41:29;;;;;;;13.20;4.65;;;;;;;10.39;88.58;101472.78;6497970;23;20181;-83
2022/05/29 06:44:00;;;;;;;10.38;3.72;;;;;;;10.62;87.57;101478.84;6498472;23;20058;-84
2022/05/29 06:46:32;;;;;;;8.20;3.23;;;;;;;10.71;86.90;101477.06;6497957;23;20004;-81
2022/05/29 06:49:04;;;;;;;9.77;4.15;;;;;;;10.85;86.11;101481.38;6497744;23;20020;-80
2022/05/29 06:51:35;;;;;;;9.77;4.17;;;;;;;10.97;85.81;101470.06;6497794;23;20079;-80
2022/05/29 06:54:06;;;;;;;9.10;2.93;;;;;;;11.20;86.14;101475.19;6498154;23;20011;-81
2022/05/29 06:56:38;;;;;;;6.67;3.37;;;;;;;11.22;83.62;101484.75;6498050;23;20007;-80
2022/05/29 06:59:09;;;;;;;10.57;3.17;;;;;;;11.17;83.72;101478.66;6497965;23;19996;-80
2022/05/29 07:06:59;;;;;;;5.70;2.80;;;;;;;11.09;84.69;101480.44;6497647;23;20008;-79
2022/05/29 07:07:33;;;;;;;9.88;3.33;;;;;;;11.13;84.79;101480.41;6497819;23;20306;-80
2022/05/29 07:10:05;;;;;;;8.52;2.75;;;;;;;11.12;83.86;101476.09;6498761;23;20000;-82
2022/05/29 07:12:36;;;;;;;9.83;3.73;;;;;;;11.29;84.25;101476.00;6497603;23;20310;-80
2022/05/29 07:15:08;;;;;;;10.37;3.50;;;;;;;11.38;85.09;101469.00;6498068;23;20012;-81
2022/05/29 07:17:39;;;;;;;11.37;3.80;;;;;;;11.61;85.35;101468.88;6497680;23;20328;-82
2022/05/29 07:20:11;;;;;;;8.73;3.47;;;;;;;11.64;84.71;101463.63;6497773;23;20000;-82
2022/05/29 07:22:43;;;;;;;11.43;2.72;;;;;;;11.89;83.13;101460.84;6497543;23;20078;-80
2022/05/29 07:25:15;;;;;;;7.72;2.88;;;;;;;12.14;82.47;101465.03;6497757;23;20008;-80
2022/05/29 07:27:46;;;;;;;11.83;3.07;;;;;;;12.11;80.10;101464.22;6470991;23;20062;-84
2022/05/29 07:30:17;;;;;;;9.77;3.43;;;;;;;12.10;80.17;101458.09;6498277;23;20008;-82
2022/05/29 07:32:49;;;;;;;10.80;3.20;;;;;;;12.18;78.42;101452.81;6497478;23;20030;-84
2022/05/29 07:35:20;;;;;;;10.93;3.27;;;;;;;12.25;77.41;101457.09;6496585;23;20008;-82
2022/05/29 07:37:52;;;;;;;10.93;3.20;;;;;;;12.49;79.47;101460.34;6497260;23;20044;-81
2022/05/29 07:40:25;;;;;;;8.23;3.77;;;;;;;12.55;77.93;101452.47;6497438;23;20004;-83
2022/05/29 07:45:52;;;;;;;13.52;3.55;;;;;;;12.52;73.62;101455.09;6494900;23;20024;-78
2022/05/29 07:48:26;;;;;;;10.02;2.72;;;;;;;12.73;74.96;101469.69;6497354;23;20008;-79
2022/05/29 07:50:57;;;;;;;9.70;3.70;;;;;;;12.69;74.93;101454.94;6495409;23;20012;-81
2022/05/29 07:53:29;;;;;;;9.00;2.97;;;;;;;12.74;73.93;101460.97;6496706;23;20022;-78
2022/05/29 07:56:02;;;;;;;8.40;2.67;;;;;;;12.72;72.27;101447.06;6496858;23;20424;-82
2022/05/29 07:58:34;;;;;;;9.73;3.55;;;;;;;12.80;72.22;101449.56;6497857;23;20349;-83
2022/05/29 08:01:05;;;;;;;10.20;2.93;;;;;;;13.10;72.63;101454.44;6497621;23;20008;-84
2022/05/29 08:03:38;;;;;;;9.67;3.33;;;;;;;13.25;71.50;101444.66;6497165;23;20004;-82
2022/05/29 08:06:10;;;;;;;8.77;2.78;;;;;;;13.34;71.89;101446.31;6496009;23;20000;-81
2022/05/29 08:08:41;;;;;;;10.43;3.13;;;;;;;13.62;74.20;101449.41;6497030;23;20070;-81
2022/05/29 08:11:15;;;;;;;7.97;2.60;;;;;;;13.50;70.47;101447.84;6498419;23;20008;-83
2022/05/29 08:13:46;;;;;;;13.80;2.95;;;;;;;13.46;67.61;101447.03;6497250;23;20410;-82
2022/05/29 08:16:18;;;;;;;8.33;2.87;;;;;;;13.92;71.01;101447.22;6498594;23;20043;-80
2022/05/29 08:18:50;;;;;;;7.68;3.03;;;;;;;13.63;64.42;101444.13;6499545;23;20008;-84
2022/05/29 08:21:21;;;;;;;7.37;3.30;;;;;;;14.07;66.01;101444.34;6498196;23;20004;-82
2022/05/29 08:32:22;;;;;;;11.73;2.30;;;;;;;14.29;64.29;101431.72;6507445;23;20012;-86
2022/05/29 08:34:56;;;;;;;9.20;2.63;;;;;;;14.48;67.30;101428.78;6509895;23;20012;-83
2022/05/29 08:37:28;;;;;;;6.22;2.40;;;;;;;14.58;62.99;101432.94;6511311;23;20008;-80
2022/05/29 08:40:01;;;;;;;11.80;3.87;;;;;;;14.69;61.92;101433.63;6502130;23;20012;-81
2022/05/29 08:42:32;;;;;;;12.85;3.60;;;;;;;14.76;62.17;101429.13;6468190;23;20035;-80
2022/05/29 08:45:05;;;;;;;10.60;2.90;;;;;;;14.74;63.28;101431.78;6497703;23;20047;-85
2022/05/29 08:47:38;;;;;;;12.35;3.35;;;;;;;14.77;63.61;101430.84;6495964;23;20015;-85
2022/05/29 08:50:11;;;;;;;;;;;;;;;15.28;63.49;101427.19;6498039;23;20019;-79
2022/05/29 08:53:36;;;;;;;9.45;2.50;;;;;;;14.54;64.30;101433.91;6497792;23;20240;-85
2022/05/29 08:56:45;;;;;;;11.02;2.80;;;;;;;14.05;65.26;101425.13;6399050;23;20041;-85
2022/05/29 08:59:31;;;;;;;9.77;2.83;;;;;;;14.06;67.59;101424.25;6368710;23;20087;-85
2022/05/29 09:02:29;;;;;;;6.50;2.35;;;;;;;15.00;68.27;101421.66;6368832;23;20092;-84
2022/05/29 09:05:08;;;;;;;7.97;2.83;;;;;;;14.86;59.93;101425.44;6369354;23;20013;-85
2022/05/29 09:07:41;;;;;;;6.88;2.13;;;;;;;15.31;60.66;101420.09;6370756;23;20010;-86
2022/05/29 09:10:19;;;;;;;9.60;2.72;;;;;;;15.16;62.76;101419.56;6345459;23;20408;-85
2022/05/29 09:12:53;;;;;;;9.05;2.88;;;;;;;14.80;65.79;101411.56;6370399;23;20014;-81
2022/05/29 09:15:37;;;;;;;10.55;3.67;;;;;;;14.85;67.53;101412.34;6374444;23;20037;-81
2022/05/29 09:18:22;;;;;;;5.18;2.03;;;;;;;14.53;67.35;101405.94;6371077;23;20788;-83
2022/05/29 09:20:59;;;;;;;7.70;2.78;;;;;;;15.13;70.15;101404.72;6371025;23;20595;-84
2022/05/29 09:23:35;;;;;;;10.23;3.22;;;;;;;15.84;69.20;101404.00;6370124;23;20134;-83
2022/05/29 09:26:14;;;;;;;6.90;2.22;;;;;;;15.91;60.07;101402.06;6371452;23;20450;-87
2022/05/29 09:28:46;;;;;;;12.52;3.90;;;;;;;16.16;58.78;101390.91;6371798;23;20437;-85
2022/05/29 09:31:20;;;;;;;9.43;2.63;;;;;;;16.28;57.15;101395.00;6371329;23;20048;-83
2022/05/29 09:33:52;;;;;;;6.88;2.00;;;;;;;16.01;57.13;101390.41;6370894;23;20078;-84
2022/05/29 09:37:00;;;;;;;8.13;2.92;;;;;;;15.66;59.65;101391.25;6481361;23;20008;-88
2022/05/29 09:39:43;;;;;;;7.32;2.30;;;;;;;14.53;62.44;101400.69;6500816;23;20039;-86
2022/05/29 09:42:40;;;;;;;5.90;2.17;;;;;;;13.90;64.03;101397.44;6498488;23;20050;-89
2022/05/29 09:45:32;;;;;;;5.75;2.38;;;;;;;13.79;66.20;101394.13;6499061;23;20008;-85
2022/05/29 09:51:28;;;;;;;5.90;2.35;;;;;;;14.62;65.53;101381.28;6499692;23;20020;-88
2022/05/29 09:54:05;;;;;;;7.03;2.47;;;;;;;15.00;62.46;101388.38;6500889;23;20008;-81
2022/05/29 09:56:36;;;;;;;8.80;2.80;;;;;;;15.43;61.12;101373.41;6500667;23;20058;-85
2022/05/29 09:59:21;;;;;;;9.00;2.70;;;;;;;16.33;59.55;101378.16;6504712;23;20061;-88
2022/05/29 10:02:02;;;;;;;5.50;1.90;;;;;;;17.26;54.90;101370.25;6501265;23;20039;-90
2022/05/29 10:04:37;;;;;;;6.63;2.03;;;;;;;16.80;52.22;101374.25;6499369;23;20090;-90
2022/05/29 10:07:15;;;;;;;5.82;2.22;;;;;;;16.46;54.55;101362.06;6499214;23;20042;-85
2022/05/29 10:10:08;;;;;;;5.07;1.95;;;;;;;16.22;56.10;101369.69;6472312;23;20012;-89
2022/05/29 10:12:44;;;;;;;9.27;2.90;;;;;;;15.61;56.22;101359.81;6505095;23;19996;-87
2022/05/29 10:15:25;;;;;;;5.78;2.75;;;;;;;15.40;57.39;101363.84;6510277;23;20004;-88
2022/05/29 10:18:17;;;;;;;5.13;2.50;;;;;;;15.62;56.01;101361.56;6512662;23;20004;-86
2022/05/29 10:20:50;;;;;;;9.43;3.47;;;;;;;15.49;57.27;101363.63;6497352;23;20012;-87
2022/05/29 10:23:34;;;;;;;5.68;2.00;;;;;;;14.86;62.21;101372.94;6509639;23;20406;-89
2022/05/29 10:26:33;;;;;;;5.93;2.10;;;;;;;14.41;65.16;101363.31;6509602;23;20027;-88
2022/05/29 10:29:27;;;;;;;6.82;2.10;;;;;;;13.75;64.74;101368.84;6507095;23;20010;-86
2022/05/29 10:32:05;;;;;;;4.45;1.60;;;;;;;13.02;68.56;101366.44;6506190;23;20084;-82
2022/05/29 10:34:40;;;;;;;5.70;1.40;;;;;;;12.83;70.14;101371.03;6476563;23;20369;-82
2022/05/29 10:37:41;;;;;;;3.90;1.50;;;;;;;13.16;70.25;101359.25;6478039;23;20012;-86
2022/05/29 10:40:24;;;;;;;3.28;1.50;;;;;;;13.34;74.36;101349.44;6501629;23;20000;-83
2022/05/29 10:43:01;;;;;;;3.80;1.40;;;;;;;13.27;70.97;101348.66;6502761;23;20414;-85
2022/05/29 10:45:43;;;;;;;6.07;1.67;;;;;;;13.28;76.11;101368.69;6503320;23;20004;-86
2022/05/29 10:48:33;;;;;;;2.88;1.65;;;;;;;13.12;77.34;101376.78;6514251;23;19996;-83
2022/05/29 10:51:17;;;;;;;3.58;1.60;;;;;;;12.82;78.71;101383.28;6517903;23;20016;-82
2022/05/29 10:54:33;;;;;;;6.30;2.15;;;;;;;12.73;79.33;101384.22;6513566;23;20059;-82
2022/05/29 10:57:10;;;;;;;4.78;2.28;;;;;;;12.59;80.76;101376.56;6369265;23;20432;-77
2022/05/29 10:59:44;;;;;;;6.43;2.40;;;;;;;12.33;79.00;101381.22;6369115;23;20172;-80
2022/05/29 11:06:03;;;;;;;10.45;3.08;;;;;;;12.99;78.78;101372.56;6368859;23;20022;-79
2022/05/29 11:08:37;;;;;;;6.75;2.28;;;;;;;13.52;75.94;101364.84;6368565;23;20040;-79
2022/05/29 11:11:15;;;;;;;6.82;2.08;;;;;;;13.94;76.96;101367.69;6373008;23;20029;-79
2022/05/29 11:14:05;;;;;;;3.85;2.30;;;;;;;14.81;78.63;101372.16;6371561;23;20388;-78
2022/05/29 11:17:00;;;;;;;6.90;2.63;;;;;;;16.53;72.71;101368.84;6367979;23;20462;-80
2022/05/29 11:19:50;;;;;;;6.03;2.35;;;;;;;18.70;63.95;101360.94;6368004;23;20060;-77
2022/05/29 11:22:29;;;;;;;7.90;2.15;;;;;;;19.43;53.93;101357.25;6367840;23;20065;-79
2022/05/29 11:25:19;;;;;;;4.65;1.90;;;;;;;18.60;57.07;101371.00;6369153;23;20010;-80
2022/05/29 11:27:51;;;;;;;3.75;1.70;;;;;;;16.87;60.34;101367.91;6370065;23;20016;-82
2022/05/29 11:30:30;;;;;;;5.75;1.90;;;;;;;15.41;64.26;101362.09;6401200;23;20468;-80
2022/05/29 11:33:12;;;;;;;5.50;1.80;;;;;;;14.76;70.90;101380.13;6497595;23;20004;-80
2022/05/29 11:36:02;;;;;;;5.03;1.58;;;;;;;14.24;71.15;101378.50;6497764;23;20012;-79
2022/05/29 11:38:39;;;;;;;5.15;1.75;;;;;;;13.91;75.21;101377.31;6498102;23;20004;-79
2022/05/29 11:41:17;;;;;;;8.48;2.17;;;;;;;13.31;75.42;101372.16;6497387;23;20079;-80
2022/05/29 11:44:06;;;;;;;4.82;2.10;;;;;;;13.48;77.53;101368.44;6497637;23;20103;-80
2022/05/29 11:52:43;;;;;;;6.60;1.88;;;;;;;13.44;76.48;101359.75;6497785;23;20087;-81
2022/05/29 11:55:21;;;;;;;6.45;1.73;;;;;;;13.49;76.59;101357.03;6496932;23;20007;-77
2022/05/29 11:58:07;;;;;;;3.80;1.92;;;;;;;13.56;76.29;101360.47;6496592;23;20004;-78
2022/05/29 12:01:06;;;;;;;9.18;2.15;;;;;;;13.98;76.96;101356.22;6497008;23;20311;-79
2022/05/29 12:03:57;;;;;;;2.03;1.25;;;;;;;13.82;73.97;101363.50;6492108;23;20023;-79
2022/05/29 12:06:34;;;;;;;6.80;1.98;;;;;;;14.21;74.28;101353.19;6496931;23;20418;-80
2022/05/29 12:09:13;;;;;;;3.28;1.58;;;;;;;14.56;71.73;101356.88;6497348;23;20381;-78
2022/05/29 12:12:15;;;;;;;3.08;0.95;;;;;;;14.67;66.96;101351.44;6499574;23;20065;-81
2022/05/29 12:15:00;;;;;;;1.27;0.83;;;;;;;14.74;66.36;101346.94;6497022;23;20380;-80
2022/05/29 12:17:48;;;;;;;1.00;0.68;;;;;;;15.04;68.49;101349.81;6496924;23;20008;-80
2022/05/29 12:20:35;;;;;;;2.72;1.10;;;;;;;15.39;66.45;101341.13;6497121;23;20015;-80
2022/05/29 12:23:24;;;;;;;2.78;1.08;;;;;;;15.84;70.19;101345.28;6496802;23;20004;-79
2022/05/29 12:26:06;;;;;;;3.38;1.30;;;;;;;16.28;69.34;101334.50;6496561;23;20008;-78
2022/05/29 12:28:38;;;;;;;2.83;1.30;;;;;;;16.68;67.60;101338.59;6491922;23;20010;-79
2022/05/29 12:31:35;;;;;;;2.77;1.30;;;;;;;17.12;67.14;101326.75;6496343;23;20083;-78
2022/05/29 12:34:15;;;;;;;2.95;1.27;;;;;;;16.78;61.85;101325.13;6369337;23;20484;-79
2022/05/29 12:37:19;;;;;;;3.08;1.42;;;;;;;17.05;61.43;101332.25;6368676;23;20082;-80
2022/05/29 12:40:09;;;;;;;3.22;1.40;;;;;;;16.90;59.93;101329.16;6279306;23;20015;-79
2022/05/29 12:42:59;;;;;;;3.60;1.05;;;;;;;17.13;62.30;101328.47;6278324;23;20007;-80
2022/05/29 12:45:33;;;;;;;2.25;1.10;;;;;;;16.52;61.47;101338.19;6278673;23;20026;-81
2022/05/29 12:48:10;;;;;;;2.90;1.40;;;;;;;17.51;60.99;101336.03;6278338;23;20572;-80
2022/05/29 12:50:55;;;;;;;2.40;1.00;;;;;;;17.45;62.89;101326.59;6255297;23;20019;-81
2022/05/29 12:53:51;;;;;;;1.90;0.70;;;;;;;17.45;61.19;101338.88;6275743;23;20154;-79
2022/05/29 12:56:38;;;;;;;2.33;0.90;;;;;;;17.37;61.23;101331.25;6280503;23;20055;-80
2022/05/29 12:59:24;;;;;;;2.78;0.80;;;;;;;17.61;60.46;101340.13;6279782;23;20115;-80